Logo AVAMET
Benvolgut visitant, si us plau, ingressa Recuperar contrasenya
AVAMET paisatges

Castelló de la Plana UJI

Dades diàries. Acumulats / Últims 30 dies disponibles

Data Temperatura (°C) Humitat rel. (%) Pressió rel. (hPa) Vent (km/h) Precipitació
Mínima Mitjana Màxima Amplitud
tèrmica
Mínima Mitjana Màxima Mínima Mitjana Màxima Predom. Mitjana Ràfega
màxima
Total
(mm)
Índex-n
Mínima Mitjana Màxima Mínima Mitjana Màxima n
0 a 1
P0 max
mm 5'
Dades mensuals acumulades fins l'últim dia disponible
11/2020 6,4 11,6 17,3 15,8 17,0 20,0 23,7 17,3   4,7 62,8 78,4
Dades anuals acumulades fins l'últim dia disponible
2020 2,6 14,6 24,8 19,0 9,7 23,3 33,5 30,9   5,6 88,5 406,4
Últims 30 dies disponibles
25-11-2020 7,9     13,3     17,7 9,8 WNW 2,1 16,1 0,0
24-11-2020 7,3     11,8     17,0 9,7 WSW 3,1 17,7 0,0
23-11-2020 7,6     12,6     17,4 9,8 WNW 4,5 22,5 0,0
22-11-2020 6,4     12,5     17,3 10,9 WNW 4,3 19,3 0,0
21-11-2020 6,8     12,3     17,2 10,4 W 5,0 20,9 0,0
20-11-2020 9,8     14,7     20,9 11,1 WNW 5,0 25,7 0,0
19-11-2020 12,3     17,2     22,7 10,4 W 3,9 17,7 0,0
18-11-2020 14,7     16,9     20,7 6,0 SE 2,4 19,3 0,0
17-11-2020 12,2     16,6     20,6 8,4 WNW 2,6 20,9 0,0
16-11-2020 15,8     19,5     23,3 7,5 WNW 5,3 27,4 0,0
15-11-2020 12,7     18,4     23,4 10,7 WNW 3,9 24,1 0,0
14-11-2020 13,1     16,2     18,9 5,8 ESE 1,8 11,3 0,0
13-11-2020 12,5     16,0     19,8 7,3 WNW 2,6 14,5 0,0
12-11-2020 10,4     15,1     19,4 9,0 W 3,5 16,1 0,0
11-11-2020 11,1     15,5     19,9 8,8 SE 3,1 20,9 0,0
10-11-2020 12,8     16,4     21,1 8,3 WNW 5,8 20,9 0,0
09-11-2020 10,7     15,9     20,5 9,8 WNW 3,2 17,7 0,0
08-11-2020 10,9     15,4     19,8 8,9 W 2,6 14,5 0,0
07-11-2020 12,8     16,9     19,7 6,9 W 7,7 62,8 9,0
06-11-2020 17,3     18,6     19,8 2,5 NE 10,6 37,0 0,2
05-11-2020 13,4     15,6     17,6 4,2 NE 14,0 51,5 45,4
04-11-2020 10,9     13,1     17,9 7,0 N 10,1 41,8 23,8
03-11-2020 16,7     18,5     21,6 4,9 N 6,9 29,0 0,0
02-11-2020 12,8     17,7     22,3 9,5 ENE 1,8 19,3 0,0
01-11-2020 12,2     18,3     23,7 11,5 SE 1,9 16,1 0,0
30-10-2020 10,6     16,7     22,0 11,4 W 2,7 16,1 0,0
29-10-2020 12,2     17,4     21,8 9,6 E 3,2 20,9 0,0
28-10-2020 11,8     17,6     22,5 10,7 W 3,5 22,5 0,0
27-10-2020 8,7     15,3     20,2 11,5 WNW 5,8 27,4 0,0
26-10-2020 12,8     17,2     20,7 7,9 WNW 11,9 43,5 0,0
Últims 13 mesos disponibles
07/2019 18,8 21,1 24,1 26,3 27,8 30,6 34,6 15,8 E 5,2 45,1 11,4
06/2019 10,1 16,7 21,2 22,1 21,3 26,7 37,6 27,5 E 5,8 48,3 0,0
05/2019 7,3 12,5 15,7 17,7 17,8 22,4 28,4 21,1 W 5,6 41,8 12,5
04/2019 5,9 10,0 13,9 14,9 16,0 19,5 27,1 21,2 W 7,6 59,5 51,5
03/2019 4,3 7,5 13,2 13,7 15,8 19,5 25,4 21,1 W 5,5 46,7 1,0
02/2019 1,0 4,9 9,7 10,8 13,3 16,9 23,3 22,3 SW 5,3 74,0 0,0
01/2019 1,8 4,2 7,6 10,0 12,0 15,8 21,8 20,0 WSW 3,5 56,3 0,9
12/2018 3,2 7,3 10,9 12,1 14,1 17,5 23,6 20,4 WSW 1,5 46,7 8,9
11/2018 5,3 9,9 16,2 13,9 14,1 18,3 21,1 15,8 SW 2,2 35,4 80,0
10/2018 5,8 13,5 18,1 18,1 14,2 22,2 27,4 21,6 ENE 2,6 57,9 138,0
09/2018 15,7 19,5 22,1 23,7 24,2 27,3 30,4 14,7 ENE 2,1 46,7 69,1
08/2018 18,2 21,9 26,1 26,4 26,6 30,0 34,4 16,2 2,4 29,0 76,3
07/2018 18,4 21,8 24,0 26,2 26,1 29,8 34,3 15,9 2,6 22,5 2,5
Tots els anys disponibles
2017 2,2 12,9 24,9 17,8 9,0 22,1 35,6 33,4 2,5 75,6 376,8
2016 2,2 15,7 24,1 20,1 12,0 24,0 33,2 31,0 2,5 43,5 361,3
2015 0,8 13,2 20,4 17,8 20,2 22,1 35,9 35,1 4,1 67,6 513,8
Temperatura (°C)
Humitat relativa (%)
Velocitat del vent i ràfega màxima (km/h)
Direcció del vent (°)
Pressió (hPa)
Precipitació (mm)
Nota sobre les dades: s'avisa a l'usuari de la provisionalitat i no oficialitat d'aquestes dades
Logo AVAMET blanc
Web allotjada a Sollutia
Llicència de Creative CommonsLa web d'AVAMET i els seus continguts estan subjectes a una llicència de
Reconeixement - No Comercial - Compartir igual
Avís legal - Política de privacitat - Política de cookies
NOVES ESTACIONS: València - l'Olivereta (Soci), Xixona - Carrasqueta/Bugaia (Soci), l'Alcúdia de Crespins/Canals - la Muntanyeta (Soci), Utiel - est (Soci), Xàbia - Cansalades (Soci), Alginet (Soci), Quatretondeta (Ajuntament Soci) Enguera - Benali (Soci/ADENE), la Vall d'Alba - sud (Ajuntament Soci), El Fondó dels Frares (Estació pròpia d'AVAMET nº34) - - -